sensor_id;sensor_type;location;lat;lon;timestamp;temperature;humidity
80706;DHT22;70229;48.010;7.852;2024-01-15T15:01:29;1.60;99.90
80706;DHT22;70229;48.010;7.852;2024-01-15T15:03:55;1.40;99.90
80706;DHT22;70229;48.010;7.852;2024-01-15T15:06:21;2.30;99.90
80706;DHT22;70229;48.010;7.852;2024-01-15T15:08:46;2.30;99.90
80706;DHT22;70229;48.010;7.852;2024-01-15T15:11:12;1.60;99.90
80706;DHT22;70229;48.010;7.852;2024-01-15T16:15:47;1.40;99.90
80706;DHT22;70229;48.010;7.852;2024-01-15T16:18:13;2.40;99.90
80706;DHT22;70229;48.010;7.852;2024-01-15T16:20:38;1.30;99.90
80706;DHT22;70229;48.010;7.852;2024-01-15T16:23:04;0.40;99.90
80706;DHT22;70229;48.010;7.852;2024-01-15T16:25:30;1.30;99.90
80706;DHT22;70229;48.010;7.852;2024-01-15T18:06:20;0.90;99.90
80706;DHT22;70229;48.010;7.852;2024-01-15T18:08:48;0.90;99.90
80706;DHT22;70229;48.010;7.852;2024-01-15T18:11:17;1.40;99.90
80706;DHT22;70229;48.010;7.852;2024-01-15T18:13:45;0.80;99.90
80706;DHT22;70229;48.010;7.852;2024-01-15T18:16:11;0.80;99.90
80706;DHT22;70229;48.010;7.852;2024-01-15T18:18:37;0.70;99.90
80706;DHT22;70229;48.010;7.852;2024-01-15T18:21:04;1.30;99.90
80706;DHT22;70229;48.010;7.852;2024-01-15T18:23:31;1.90;99.90
80706;DHT22;70229;48.010;7.852;2024-01-15T18:25:57;0.60;99.90
80706;DHT22;70229;48.010;7.852;2024-01-15T18:28:23;0.50;99.90
80706;DHT22;70229;48.010;7.852;2024-01-15T18:30:50;0.50;99.90
80706;DHT22;70229;48.010;7.852;2024-01-15T18:33:16;0.40;99.90
80706;DHT22;70229;48.010;7.852;2024-01-15T18:35:47;0.30;99.90
80706;DHT22;70229;48.010;7.852;2024-01-15T18:38:16;1.10;99.90
80706;DHT22;70229;48.010;7.852;2024-01-15T18:40:43;0.30;99.90
80706;DHT22;70229;48.010;7.852;2024-01-15T18:43:09;0.10;99.90
80706;DHT22;70229;48.010;7.852;2024-01-15T18:45:35;0.20;99.90
80706;DHT22;70229;48.010;7.852;2024-01-15T18:48:01;0.20;99.90
80706;DHT22;70229;48.010;7.852;2024-01-15T18:50:26;0.30;99.90
80706;DHT22;70229;48.010;7.852;2024-01-15T18:52:53;0.30;99.90
80706;DHT22;70229;48.010;7.852;2024-01-15T18:55:19;0.20;99.90
80706;DHT22;70229;48.010;7.852;2024-01-15T18:57:46;0.20;99.90
80706;DHT22;70229;48.010;7.852;2024-01-15T19:00:13;0.10;99.90
80706;DHT22;70229;48.010;7.852;2024-01-15T19:02:39;0.10;99.90
80706;DHT22;70229;48.010;7.852;2024-01-15T19:05:05;0.10;99.90
80706;DHT22;70229;48.010;7.852;2024-01-15T19:07:30;0.00;99.90
80706;DHT22;70229;48.010;7.852;2024-01-15T19:09:58;0.00;99.90
80706;DHT22;70229;48.010;7.852;2024-01-15T19:12:23;0.00;99.90
80706;DHT22;70229;48.010;7.852;2024-01-15T19:14:49;0.00;99.90
80706;DHT22;70229;48.010;7.852;2024-01-15T19:17:15;-0.10;99.90
80706;DHT22;70229;48.010;7.852;2024-01-15T19:19:40;0.00;99.90
80706;DHT22;70229;48.010;7.852;2024-01-15T19:22:06;0.00;99.90
80706;DHT22;70229;48.010;7.852;2024-01-15T19:24:35;0.00;99.90
80706;DHT22;70229;48.010;7.852;2024-01-15T19:27:01;0.00;99.90
80706;DHT22;70229;48.010;7.852;2024-01-15T19:29:26;0.00;99.90
80706;DHT22;70229;48.010;7.852;2024-01-15T19:31:53;0.00;99.90
80706;DHT22;70229;48.010;7.852;2024-01-15T19:34:18;0.00;99.90
80706;DHT22;70229;48.010;7.852;2024-01-15T19:36:44;0.00;99.90
80706;DHT22;70229;48.010;7.852;2024-01-15T19:39:10;-0.10;99.90
80706;DHT22;70229;48.010;7.852;2024-01-15T19:41:35;0.00;99.90
80706;DHT22;70229;48.010;7.852;2024-01-15T19:44:00;0.00;99.90
80706;DHT22;70229;48.010;7.852;2024-01-15T19:46:26;0.00;99.90
80706;DHT22;70229;48.010;7.852;2024-01-15T19:48:52;0.00;99.90
80706;DHT22;70229;48.010;7.852;2024-01-15T19:51:17;0.00;99.90
80706;DHT22;70229;48.010;7.852;2024-01-15T19:53:43;0.00;99.90
80706;DHT22;70229;48.010;7.852;2024-01-15T19:56:09;0.00;99.90
80706;DHT22;70229;48.010;7.852;2024-01-15T19:58:34;0.00;99.90
80706;DHT22;70229;48.010;7.852;2024-01-15T20:01:02;0.00;99.90
80706;DHT22;70229;48.010;7.852;2024-01-15T20:03:31;0.50;99.90
80706;DHT22;70229;48.010;7.852;2024-01-15T20:05:56;-0.10;99.90
80706;DHT22;70229;48.010;7.852;2024-01-15T20:08:22;1.00;99.90
80706;DHT22;70229;48.010;7.852;2024-01-15T20:10:47;-0.20;99.90
80706;DHT22;70229;48.010;7.852;2024-01-15T20:13:13;-0.10;99.90
80706;DHT22;70229;48.010;7.852;2024-01-15T20:15:39;0.50;99.90
80706;DHT22;70229;48.010;7.852;2024-01-15T20:18:05;1.30;99.90
80706;DHT22;70229;48.010;7.852;2024-01-15T20:20:31;-0.10;99.90
80706;DHT22;70229;48.010;7.852;2024-01-15T20:22:57;-0.10;99.90
80706;DHT22;70229;48.010;7.852;2024-01-15T20:25:23;0.90;99.90
80706;DHT22;70229;48.010;7.852;2024-01-15T20:27:49;0.80;99.90
80706;DHT22;70229;48.010;7.852;2024-01-15T20:30:14;-0.20;99.90
80706;DHT22;70229;48.010;7.852;2024-01-15T20:32:40;-0.30;99.90
80706;DHT22;70229;48.010;7.852;2024-01-15T20:35:06;-0.30;99.90
80706;DHT22;70229;48.010;7.852;2024-01-15T20:37:32;-0.30;99.90
80706;DHT22;70229;48.010;7.852;2024-01-15T20:39:57;-0.30;99.90
80706;DHT22;70229;48.010;7.852;2024-01-15T20:42:24;-0.30;99.90
80706;DHT22;70229;48.010;7.852;2024-01-15T20:44:50;-0.50;99.90
80706;DHT22;70229;48.010;7.852;2024-01-15T20:47:16;-0.50;99.90
80706;DHT22;70229;48.010;7.852;2024-01-15T20:49:41;-0.50;99.90
80706;DHT22;70229;48.010;7.852;2024-01-15T20:52:07;-0.50;99.90
80706;DHT22;70229;48.010;7.852;2024-01-15T20:54:33;-0.50;99.90
80706;DHT22;70229;48.010;7.852;2024-01-15T20:56:58;-0.50;99.90
80706;DHT22;70229;48.010;7.852;2024-01-15T20:59:27;-0.60;99.90
80706;DHT22;70229;48.010;7.852;2024-01-15T21:01:53;-0.60;99.90
80706;DHT22;70229;48.010;7.852;2024-01-15T21:04:18;-0.50;99.90
80706;DHT22;70229;48.010;7.852;2024-01-15T21:06:44;-0.60;99.90
80706;DHT22;70229;48.010;7.852;2024-01-15T21:09:09;-0.70;99.90
80706;DHT22;70229;48.010;7.852;2024-01-15T21:11:35;-0.70;99.90
80706;DHT22;70229;48.010;7.852;2024-01-15T21:14:01;-0.70;99.90
80706;DHT22;70229;48.010;7.852;2024-01-15T21:16:26;-0.80;99.90
80706;DHT22;70229;48.010;7.852;2024-01-15T21:18:52;-0.80;99.90
80706;DHT22;70229;48.010;7.852;2024-01-15T21:21:17;-0.90;99.90
80706;DHT22;70229;48.010;7.852;2024-01-15T21:23:44;-0.90;99.90
80706;DHT22;70229;48.010;7.852;2024-01-15T21:26:09;-0.80;99.90
80706;DHT22;70229;48.010;7.852;2024-01-15T21:28:35;-0.80;99.90
80706;DHT22;70229;48.010;7.852;2024-01-15T21:31:01;-0.90;99.90
80706;DHT22;70229;48.010;7.852;2024-01-15T21:33:27;-0.90;99.90
80706;DHT22;70229;48.010;7.852;2024-01-15T21:35:57;-1.00;99.90
80706;DHT22;70229;48.010;7.852;2024-01-15T21:38:22;-0.80;99.90
80706;DHT22;70229;48.010;7.852;2024-01-15T21:40:48;-1.00;99.90
80706;DHT22;70229;48.010;7.852;2024-01-15T21:43:13;-1.10;99.90
80706;DHT22;70229;48.010;7.852;2024-01-15T21:45:40;-1.00;99.90
80706;DHT22;70229;48.010;7.852;2024-01-15T21:48:05;-1.10;99.90
80706;DHT22;70229;48.010;7.852;2024-01-15T21:50:31;-1.20;99.90
80706;DHT22;70229;48.010;7.852;2024-01-15T21:52:57;-1.10;99.90
80706;DHT22;70229;48.010;7.852;2024-01-15T21:55:23;-1.10;99.90
80706;DHT22;70229;48.010;7.852;2024-01-15T21:57:48;-1.20;99.90
80706;DHT22;70229;48.010;7.852;2024-01-15T22:00:15;-1.20;99.90
80706;DHT22;70229;48.010;7.852;2024-01-15T22:02:41;-1.10;99.90
80706;DHT22;70229;48.010;7.852;2024-01-15T22:05:08;-1.10;99.90
80706;DHT22;70229;48.010;7.852;2024-01-15T22:07:35;-1.20;99.90
80706;DHT22;70229;48.010;7.852;2024-01-15T22:10:02;-1.30;99.90
80706;DHT22;70229;48.010;7.852;2024-01-15T22:12:28;-1.30;99.90
80706;DHT22;70229;48.010;7.852;2024-01-15T22:14:53;-1.30;99.90
80706;DHT22;70229;48.010;7.852;2024-01-15T22:17:19;-1.20;99.90
80706;DHT22;70229;48.010;7.852;2024-01-15T22:19:44;-1.20;99.90
80706;DHT22;70229;48.010;7.852;2024-01-15T22:22:10;-1.20;99.90
80706;DHT22;70229;48.010;7.852;2024-01-15T22:24:37;-1.30;99.90
80706;DHT22;70229;48.010;7.852;2024-01-15T22:27:04;-1.30;99.90
80706;DHT22;70229;48.010;7.852;2024-01-15T22:29:29;-1.30;99.90
80706;DHT22;70229;48.010;7.852;2024-01-15T22:31:55;-1.30;99.90
80706;DHT22;70229;48.010;7.852;2024-01-15T22:34:21;-1.30;99.90
80706;DHT22;70229;48.010;7.852;2024-01-15T22:36:46;-1.40;99.90
80706;DHT22;70229;48.010;7.852;2024-01-15T22:39:12;-1.30;99.90
80706;DHT22;70229;48.010;7.852;2024-01-15T22:41:39;-1.40;99.90
80706;DHT22;70229;48.010;7.852;2024-01-15T22:44:04;-1.40;99.90
80706;DHT22;70229;48.010;7.852;2024-01-15T22:46:30;-1.40;99.90
80706;DHT22;70229;48.010;7.852;2024-01-15T22:48:55;-1.40;99.90
80706;DHT22;70229;48.010;7.852;2024-01-15T22:51:21;-1.40;99.90
80706;DHT22;70229;48.010;7.852;2024-01-15T22:53:46;-1.50;99.90
80706;DHT22;70229;48.010;7.852;2024-01-15T22:56:12;-1.50;99.90
80706;DHT22;70229;48.010;7.852;2024-01-15T22:58:37;-1.50;99.90
80706;DHT22;70229;48.010;7.852;2024-01-15T23:01:03;-1.50;99.90
80706;DHT22;70229;48.010;7.852;2024-01-15T23:03:29;-1.50;99.90
80706;DHT22;70229;48.010;7.852;2024-01-15T23:05:54;-1.50;99.90
80706;DHT22;70229;48.010;7.852;2024-01-15T23:08:20;-0.20;99.90
80706;DHT22;70229;48.010;7.852;2024-01-15T23:10:47;-1.50;99.90
80706;DHT22;70229;48.010;7.852;2024-01-15T23:13:12;-1.60;99.90
80706;DHT22;70229;48.010;7.852;2024-01-15T23:15:39;-1.60;99.90
80706;DHT22;70229;48.010;7.852;2024-01-15T23:18:04;-1.50;99.90
80706;DHT22;70229;48.010;7.852;2024-01-15T23:20:30;-1.60;99.90
80706;DHT22;70229;48.010;7.852;2024-01-15T23:22:56;-1.60;99.90
80706;DHT22;70229;48.010;7.852;2024-01-15T23:25:21;-1.60;99.90
80706;DHT22;70229;48.010;7.852;2024-01-15T23:27:47;-1.60;99.90
80706;DHT22;70229;48.010;7.852;2024-01-15T23:30:13;-1.60;99.90
80706;DHT22;70229;48.010;7.852;2024-01-15T23:32:38;-1.60;99.90
80706;DHT22;70229;48.010;7.852;2024-01-15T23:35:04;-1.50;99.90
80706;DHT22;70229;48.010;7.852;2024-01-15T23:37:30;-1.70;99.90
80706;DHT22;70229;48.010;7.852;2024-01-15T23:39:55;-1.70;99.90
80706;DHT22;70229;48.010;7.852;2024-01-15T23:42:21;-1.70;99.90
80706;DHT22;70229;48.010;7.852;2024-01-15T23:44:47;-1.70;99.90
80706;DHT22;70229;48.010;7.852;2024-01-15T23:47:15;-1.70;99.90
80706;DHT22;70229;48.010;7.852;2024-01-15T23:49:40;-1.70;99.90
80706;DHT22;70229;48.010;7.852;2024-01-15T23:52:06;-1.70;99.90
80706;DHT22;70229;48.010;7.852;2024-01-15T23:54:31;-1.70;99.90
80706;DHT22;70229;48.010;7.852;2024-01-15T23:57:00;-1.70;99.90
80706;DHT22;70229;48.010;7.852;2024-01-15T23:59:26;-1.70;99.90
